sensor_id;sensor_type;location;lat;lon;timestamp;temperature;humidity
19906;DHT22;10115;50.906;4.438;2022-12-10T00:01:27;0.50;99.90
19906;DHT22;10115;50.906;4.438;2022-12-10T00:03:53;0.50;99.90
19906;DHT22;10115;50.906;4.438;2022-12-10T00:06:21;0.50;99.90
19906;DHT22;10115;50.906;4.438;2022-12-10T00:08:47;0.10;99.90
19906;DHT22;10115;50.906;4.438;2022-12-10T00:11:15;0.00;99.90
19906;DHT22;10115;50.906;4.438;2022-12-10T00:13:42;-0.10;99.90
19906;DHT22;10115;50.906;4.438;2022-12-10T00:16:10;-0.20;99.90
19906;DHT22;10115;50.906;4.438;2022-12-10T00:18:36;-0.20;99.90
19906;DHT22;10115;50.906;4.438;2022-12-10T00:21:07;-0.20;99.90
19906;DHT22;10115;50.906;4.438;2022-12-10T00:23:34;-0.10;99.90
19906;DHT22;10115;50.906;4.438;2022-12-10T00:26:12;0.00;99.90
19906;DHT22;10115;50.906;4.438;2022-12-10T00:28:39;0.00;99.90
19906;DHT22;10115;50.906;4.438;2022-12-10T00:31:06;0.00;99.90
19906;DHT22;10115;50.906;4.438;2022-12-10T00:33:33;0.20;99.90
19906;DHT22;10115;50.906;4.438;2022-12-10T00:36:22;0.40;99.90
19906;DHT22;10115;50.906;4.438;2022-12-10T00:38:48;0.30;99.90
19906;DHT22;10115;50.906;4.438;2022-12-10T00:41:14;0.40;99.90
19906;DHT22;10115;50.906;4.438;2022-12-10T00:43:41;0.20;99.90
19906;DHT22;10115;50.906;4.438;2022-12-10T00:46:07;-0.10;99.90
19906;DHT22;10115;50.906;4.438;2022-12-10T00:48:34;-0.30;99.90
19906;DHT22;10115;50.906;4.438;2022-12-10T00:53:30;-0.50;99.90
19906;DHT22;10115;50.906;4.438;2022-12-10T00:55:56;-0.50;99.90
19906;DHT22;10115;50.906;4.438;2022-12-10T00:58:23;-0.50;99.90
19906;DHT22;10115;50.906;4.438;2022-12-10T01:00:49;-0.70;99.90
19906;DHT22;10115;50.906;4.438;2022-12-10T01:03:15;-0.70;99.90
19906;DHT22;10115;50.906;4.438;2022-12-10T01:05:41;-0.60;99.90
19906;DHT22;10115;50.906;4.438;2022-12-10T01:08:06;-0.70;99.90
19906;DHT22;10115;50.906;4.438;2022-12-10T01:10:32;-0.70;99.90
19906;DHT22;10115;50.906;4.438;2022-12-10T01:12:58;-0.50;99.90
19906;DHT22;10115;50.906;4.438;2022-12-10T01:15:23;-0.40;99.90
19906;DHT22;10115;50.906;4.438;2022-12-10T01:17:49;-0.20;99.90
19906;DHT22;10115;50.906;4.438;2022-12-10T01:20:15;-0.40;99.90
19906;DHT22;10115;50.906;4.438;2022-12-10T01:22:40;-0.30;99.90
19906;DHT22;10115;50.906;4.438;2022-12-10T01:25:06;-0.20;99.90
19906;DHT22;10115;50.906;4.438;2022-12-10T01:27:32;0.10;99.90
19906;DHT22;10115;50.906;4.438;2022-12-10T01:29:58;0.10;99.90
19906;DHT22;10115;50.906;4.438;2022-12-10T01:32:24;-0.10;99.90
19906;DHT22;10115;50.906;4.438;2022-12-10T01:34:49;-0.50;99.90
19906;DHT22;10115;50.906;4.438;2022-12-10T01:37:15;-0.50;99.90
19906;DHT22;10115;50.906;4.438;2022-12-10T01:39:41;-0.40;99.90
19906;DHT22;10115;50.906;4.438;2022-12-10T01:42:11;-0.10;99.90
19906;DHT22;10115;50.906;4.438;2022-12-10T01:47:09;-0.10;99.90
19906;DHT22;10115;50.906;4.438;2022-12-10T01:49:37;0.20;99.90
19906;DHT22;10115;50.906;4.438;2022-12-10T01:52:06;0.20;99.90
19906;DHT22;10115;50.906;4.438;2022-12-10T01:54:35;0.20;99.90
19906;DHT22;10115;50.906;4.438;2022-12-10T01:57:24;0.30;99.90
19906;DHT22;10115;50.906;4.438;2022-12-10T01:59:57;0.10;99.90
19906;DHT22;10115;50.906;4.438;2022-12-10T02:13:19;-0.30;99.90
19906;DHT22;10115;50.906;4.438;2022-12-10T02:16:03;0.10;99.90
19906;DHT22;10115;50.906;4.438;2022-12-10T02:18:36;0.20;99.90
19906;DHT22;10115;50.906;4.438;2022-12-10T02:21:26;0.30;99.90
19906;DHT22;10115;50.906;4.438;2022-12-10T02:23:59;0.10;99.90
19906;DHT22;10115;50.906;4.438;2022-12-10T02:26:35;0.00;99.90
19906;DHT22;10115;50.906;4.438;2022-12-10T02:29:25;-0.10;99.90
19906;DHT22;10115;50.906;4.438;2022-12-10T02:32:05;0.00;99.90
19906;DHT22;10115;50.906;4.438;2022-12-10T02:34:36;0.10;99.90
19906;DHT22;10115;50.906;4.438;2022-12-10T02:37:08;0.10;99.90
19906;DHT22;10115;50.906;4.438;2022-12-10T02:39:40;0.00;99.90
19906;DHT22;10115;50.906;4.438;2022-12-10T02:42:10;0.20;99.90
19906;DHT22;10115;50.906;4.438;2022-12-10T02:44:38;0.40;99.90
19906;DHT22;10115;50.906;4.438;2022-12-10T02:47:05;0.40;99.90
19906;DHT22;10115;50.906;4.438;2022-12-10T02:49:32;0.40;99.90
19906;DHT22;10115;50.906;4.438;2022-12-10T02:52:05;0.30;99.90
19906;DHT22;10115;50.906;4.438;2022-12-10T02:54:46;0.60;99.90
19906;DHT22;10115;50.906;4.438;2022-12-10T02:57:27;0.20;99.90
19906;DHT22;10115;50.906;4.438;2022-12-10T03:00:13;0.00;99.90
19906;DHT22;10115;50.906;4.438;2022-12-10T03:13:08;-0.60;99.90
19906;DHT22;10115;50.906;4.438;2022-12-10T03:15:38;-0.60;99.90
19906;DHT22;10115;50.906;4.438;2022-12-10T03:18:06;-0.60;99.90
19906;DHT22;10115;50.906;4.438;2022-12-10T03:20:36;-0.70;99.90
19906;DHT22;10115;50.906;4.438;2022-12-10T03:23:03;-0.60;99.90
19906;DHT22;10115;50.906;4.438;2022-12-10T03:25:32;-0.80;99.90
19906;DHT22;10115;50.906;4.438;2022-12-10T03:27:59;-0.80;99.90
19906;DHT22;10115;50.906;4.438;2022-12-10T03:30:26;-0.60;99.90
19906;DHT22;10115;50.906;4.438;2022-12-10T03:32:52;-0.70;99.90
19906;DHT22;10115;50.906;4.438;2022-12-10T03:35:20;-0.70;99.90
19906;DHT22;10115;50.906;4.438;2022-12-10T03:37:48;-0.70;99.90
19906;DHT22;10115;50.906;4.438;2022-12-10T03:40:16;-0.70;99.90
19906;DHT22;10115;50.906;4.438;2022-12-10T03:42:43;-0.70;99.90
19906;DHT22;10115;50.906;4.438;2022-12-10T03:45:09;-0.70;99.90
19906;DHT22;10115;50.906;4.438;2022-12-10T03:47:35;-0.80;99.90
19906;DHT22;10115;50.906;4.438;2022-12-10T03:50:01;-0.60;99.90
19906;DHT22;10115;50.906;4.438;2022-12-10T03:52:27;-0.70;99.90
19906;DHT22;10115;50.906;4.438;2022-12-10T03:54:53;-0.60;99.90
19906;DHT22;10115;50.906;4.438;2022-12-10T03:57:19;-0.70;99.90
19906;DHT22;10115;50.906;4.438;2022-12-10T03:59:44;-0.90;99.90
19906;DHT22;10115;50.906;4.438;2022-12-10T04:02:10;-0.90;99.90
19906;DHT22;10115;50.906;4.438;2022-12-10T04:04:36;-0.70;99.90
19906;DHT22;10115;50.906;4.438;2022-12-10T04:07:02;-0.60;99.90
19906;DHT22;10115;50.906;4.438;2022-12-10T04:09:28;-0.80;99.90
19906;DHT22;10115;50.906;4.438;2022-12-10T04:11:57;-0.80;99.90
19906;DHT22;10115;50.906;4.438;2022-12-10T04:14:24;-0.70;99.90
19906;DHT22;10115;50.906;4.438;2022-12-10T04:17:09;-0.80;99.90
19906;DHT22;10115;50.906;4.438;2022-12-10T04:19:34;-1.00;99.90
19906;DHT22;10115;50.906;4.438;2022-12-10T04:22:00;-0.80;99.90
19906;DHT22;10115;50.906;4.438;2022-12-10T04:24:44;-0.60;99.90
19906;DHT22;10115;50.906;4.438;2022-12-10T04:27:32;-0.50;99.90
19906;DHT22;10115;50.906;4.438;2022-12-10T04:29:59;-0.70;99.90
19906;DHT22;10115;50.906;4.438;2022-12-10T04:32:26;-0.90;99.90
19906;DHT22;10115;50.906;4.438;2022-12-10T04:34:52;-0.80;99.90
19906;DHT22;10115;50.906;4.438;2022-12-10T04:37:19;-0.80;99.90
19906;DHT22;10115;50.906;4.438;2022-12-10T04:39:45;-0.80;99.90
19906;DHT22;10115;50.906;4.438;2022-12-10T04:42:11;-1.00;99.90
19906;DHT22;10115;50.906;4.438;2022-12-10T04:44:37;-0.80;99.90
19906;DHT22;10115;50.906;4.438;2022-12-10T04:47:05;-0.70;99.90
19906;DHT22;10115;50.906;4.438;2022-12-10T04:49:31;-0.60;99.90
19906;DHT22;10115;50.906;4.438;2022-12-10T04:51:57;-0.40;99.90
19906;DHT22;10115;50.906;4.438;2022-12-10T04:54:23;-0.30;99.90
19906;DHT22;10115;50.906;4.438;2022-12-10T04:56:49;0.00;99.90
19906;DHT22;10115;50.906;4.438;2022-12-10T04:59:15;0.10;99.90
19906;DHT22;10115;50.906;4.438;2022-12-10T05:01:41;-0.20;99.90
19906;DHT22;10115;50.906;4.438;2022-12-10T05:04:10;-0.20;99.90
19906;DHT22;10115;50.906;4.438;2022-12-10T05:06:36;-0.30;99.90
19906;DHT22;10115;50.906;4.438;2022-12-10T05:09:02;-0.40;99.90
19906;DHT22;10115;50.906;4.438;2022-12-10T05:11:29;-0.60;99.90
19906;DHT22;10115;50.906;4.438;2022-12-10T05:13:56;-0.70;99.90
19906;DHT22;10115;50.906;4.438;2022-12-10T05:16:23;-0.80;99.90
19906;DHT22;10115;50.906;4.438;2022-12-10T05:18:50;-1.00;99.90
19906;DHT22;10115;50.906;4.438;2022-12-10T05:21:17;-1.00;99.90
19906;DHT22;10115;50.906;4.438;2022-12-10T05:23:45;-0.90;99.90
19906;DHT22;10115;50.906;4.438;2022-12-10T05:26:14;-0.90;99.90
19906;DHT22;10115;50.906;4.438;2022-12-10T05:29:02;-1.00;99.90
19906;DHT22;10115;50.906;4.438;2022-12-10T05:31:29;-1.00;99.90
19906;DHT22;10115;50.906;4.438;2022-12-10T05:33:56;-0.90;99.90
19906;DHT22;10115;50.906;4.438;2022-12-10T05:36:25;-0.80;99.90
19906;DHT22;10115;50.906;4.438;2022-12-10T05:38:53;-0.80;99.90
19906;DHT22;10115;50.906;4.438;2022-12-10T05:41:21;-0.80;99.90
19906;DHT22;10115;50.906;4.438;2022-12-10T05:43:48;-0.70;99.90
19906;DHT22;10115;50.906;4.438;2022-12-10T05:46:16;-0.50;99.90
19906;DHT22;10115;50.906;4.438;2022-12-10T05:48:42;-0.50;99.90
19906;DHT22;10115;50.906;4.438;2022-12-10T05:51:11;-0.60;99.90
19906;DHT22;10115;50.906;4.438;2022-12-10T05:53:37;-0.70;99.90
19906;DHT22;10115;50.906;4.438;2022-12-10T05:56:09;-0.60;99.90
19906;DHT22;10115;50.906;4.438;2022-12-10T05:58:36;-0.60;99.90
19906;DHT22;10115;50.906;4.438;2022-12-10T06:01:07;-0.80;99.90
19906;DHT22;10115;50.906;4.438;2022-12-10T06:03:33;-0.80;99.90
19906;DHT22;10115;50.906;4.438;2022-12-10T06:05:59;-0.80;99.90
19906;DHT22;10115;50.906;4.438;2022-12-10T06:08:25;-0.90;99.90
19906;DHT22;10115;50.906;4.438;2022-12-10T06:10:51;-0.90;99.90
19906;DHT22;10115;50.906;4.438;2022-12-10T06:13:16;-0.90;99.90
19906;DHT22;10115;50.906;4.438;2022-12-10T06:15:42;-0.90;99.90
19906;DHT22;10115;50.906;4.438;2022-12-10T06:18:08;-0.90;99.90
19906;DHT22;10115;50.906;4.438;2022-12-10T06:20:37;-1.00;99.90
19906;DHT22;10115;50.906;4.438;2022-12-10T06:23:04;-0.90;99.90
19906;DHT22;10115;50.906;4.438;2022-12-10T06:25:29;-1.10;99.90
19906;DHT22;10115;50.906;4.438;2022-12-10T06:27:55;-0.90;99.90
19906;DHT22;10115;50.906;4.438;2022-12-10T06:30:21;-1.00;99.90
19906;DHT22;10115;50.906;4.438;2022-12-10T06:32:46;-0.80;99.90
19906;DHT22;10115;50.906;4.438;2022-12-10T06:35:12;-0.80;99.90
19906;DHT22;10115;50.906;4.438;2022-12-10T06:37:38;-0.90;99.90
19906;DHT22;10115;50.906;4.438;2022-12-10T06:40:04;-0.90;99.90
19906;DHT22;10115;50.906;4.438;2022-12-10T06:42:30;-0.90;99.90
19906;DHT22;10115;50.906;4.438;2022-12-10T06:44:56;-0.90;99.90
19906;DHT22;10115;50.906;4.438;2022-12-10T06:47:22;-1.10;99.90
19906;DHT22;10115;50.906;4.438;2022-12-10T06:49:47;-1.10;99.90
19906;DHT22;10115;50.906;4.438;2022-12-10T06:52:13;-0.90;99.90
19906;DHT22;10115;50.906;4.438;2022-12-10T06:54:39;-1.00;99.90
19906;DHT22;10115;50.906;4.438;2022-12-10T06:57:05;-1.00;99.90
19906;DHT22;10115;50.906;4.438;2022-12-10T06:59:31;-0.90;99.90
19906;DHT22;10115;50.906;4.438;2022-12-10T07:01:56;-1.00;99.90
19906;DHT22;10115;50.906;4.438;2022-12-10T07:04:22;-0.90;99.90
19906;DHT22;10115;50.906;4.438;2022-12-10T07:06:48;-1.00;99.90
19906;DHT22;10115;50.906;4.438;2022-12-10T07:09:13;-1.00;99.90
19906;DHT22;10115;50.906;4.438;2022-12-10T07:11:39;-1.10;99.90
19906;DHT22;10115;50.906;4.438;2022-12-10T07:14:05;-1.00;99.90
19906;DHT22;10115;50.906;4.438;2022-12-10T07:16:32;-0.90;99.90
19906;DHT22;10115;50.906;4.438;2022-12-10T07:19:01;-1.00;99.90
19906;DHT22;10115;50.906;4.438;2022-12-10T07:21:28;-0.70;99.90
19906;DHT22;10115;50.906;4.438;2022-12-10T07:23:56;-0.80;99.90
19906;DHT22;10115;50.906;4.438;2022-12-10T07:26:24;-1.00;99.90
19906;DHT22;10115;50.906;4.438;2022-12-10T07:28:50;-1.10;99.90
19906;DHT22;10115;50.906;4.438;2022-12-10T07:31:16;-1.20;99.90
19906;DHT22;10115;50.906;4.438;2022-12-10T07:33:42;-1.20;99.90
19906;DHT22;10115;50.906;4.438;2022-12-10T07:36:10;-1.20;99.90
19906;DHT22;10115;50.906;4.438;2022-12-10T07:38:36;-1.20;99.90
19906;DHT22;10115;50.906;4.438;2022-12-10T07:41:07;-1.20;99.90
19906;DHT22;10115;50.906;4.438;2022-12-10T07:43:38;-1.20;99.90
19906;DHT22;10115;50.906;4.438;2022-12-10T07:48:41;-1.20;99.90
19906;DHT22;10115;50.906;4.438;2022-12-10T07:51:07;-1.20;99.90
19906;DHT22;10115;50.906;4.438;2022-12-10T07:53:33;-1.10;99.90
19906;DHT22;10115;50.906;4.438;2022-12-10T07:56:00;-1.10;99.90
19906;DHT22;10115;50.906;4.438;2022-12-10T07:58:26;-1.10;99.90
19906;DHT22;10115;50.906;4.438;2022-12-10T08:00:51;-1.20;99.90
19906;DHT22;10115;50.906;4.438;2022-12-10T08:03:17;-1.10;99.90
19906;DHT22;10115;50.906;4.438;2022-12-10T08:05:43;-1.20;99.90
19906;DHT22;10115;50.906;4.438;2022-12-10T08:08:09;-1.00;99.90
19906;DHT22;10115;50.906;4.438;2022-12-10T08:10:36;-1.10;99.90
19906;DHT22;10115;50.906;4.438;2022-12-10T08:13:02;-1.10;99.90
19906;DHT22;10115;50.906;4.438;2022-12-10T08:15:27;-1.20;99.90
19906;DHT22;10115;50.906;4.438;2022-12-10T08:17:56;-1.30;99.90
19906;DHT22;10115;50.906;4.438;2022-12-10T08:20:23;-1.20;99.90
19906;DHT22;10115;50.906;4.438;2022-12-10T08:22:49;-1.30;99.90
19906;DHT22;10115;50.906;4.438;2022-12-10T08:25:14;-1.10;99.90
19906;DHT22;10115;50.906;4.438;2022-12-10T08:27:40;-1.20;99.90
19906;DHT22;10115;50.906;4.438;2022-12-10T08:30:07;-1.20;99.90
19906;DHT22;10115;50.906;4.438;2022-12-10T08:32:33;-1.20;99.90
19906;DHT22;10115;50.906;4.438;2022-12-10T08:34:59;-1.20;99.90
19906;DHT22;10115;50.906;4.438;2022-12-10T08:37:24;-1.30;99.90
19906;DHT22;10115;50.906;4.438;2022-12-10T08:39:50;-1.20;99.90
19906;DHT22;10115;50.906;4.438;2022-12-10T08:42:16;-1.20;99.90
19906;DHT22;10115;50.906;4.438;2022-12-10T08:44:41;-1.10;99.90
19906;DHT22;10115;50.906;4.438;2022-12-10T08:47:07;-1.10;99.90
19906;DHT22;10115;50.906;4.438;2022-12-10T08:49:33;-1.20;99.90
19906;DHT22;10115;50.906;4.438;2022-12-10T08:51:59;-1.10;99.90
19906;DHT22;10115;50.906;4.438;2022-12-10T08:54:24;-1.20;99.90
19906;DHT22;10115;50.906;4.438;2022-12-10T08:56:50;-1.10;99.90
19906;DHT22;10115;50.906;4.438;2022-12-10T08:59:16;-1.10;99.90
19906;DHT22;10115;50.906;4.438;2022-12-10T09:01:42;-1.10;99.90
19906;DHT22;10115;50.906;4.438;2022-12-10T09:04:07;-0.90;99.90
19906;DHT22;10115;50.906;4.438;2022-12-10T09:06:33;-0.80;99.90
19906;DHT22;10115;50.906;4.438;2022-12-10T09:08:59;-0.70;99.90
19906;DHT22;10115;50.906;4.438;2022-12-10T09:11:30;-0.40;99.90
19906;DHT22;10115;50.906;4.438;2022-12-10T09:13:57;-0.60;99.90
19906;DHT22;10115;50.906;4.438;2022-12-10T09:16:31;-0.80;99.90
19906;DHT22;10115;50.906;4.438;2022-12-10T09:18:58;-0.80;99.90
19906;DHT22;10115;50.906;4.438;2022-12-10T09:21:25;-0.90;99.90
19906;DHT22;10115;50.906;4.438;2022-12-10T09:23:51;-0.90;99.90
19906;DHT22;10115;50.906;4.438;2022-12-10T09:26:18;-0.70;99.90
19906;DHT22;10115;50.906;4.438;2022-12-10T09:28:44;-0.80;99.90
19906;DHT22;10115;50.906;4.438;2022-12-10T09:31:11;-0.80;99.90
19906;DHT22;10115;50.906;4.438;2022-12-10T09:33:37;-0.90;99.90
19906;DHT22;10115;50.906;4.438;2022-12-10T09:36:05;-0.60;99.90
19906;DHT22;10115;50.906;4.438;2022-12-10T09:38:37;-0.30;99.90
19906;DHT22;10115;50.906;4.438;2022-12-10T09:46:55;-0.60;99.90
19906;DHT22;10115;50.906;4.438;2022-12-10T09:51:47;-0.80;99.90
19906;DHT22;10115;50.906;4.438;2022-12-10T09:54:26;-0.90;99.90
19906;DHT22;10115;50.906;4.438;2022-12-10T09:56:55;-0.80;99.90
19906;DHT22;10115;50.906;4.438;2022-12-10T09:59:27;-0.80;99.90
19906;DHT22;10115;50.906;4.438;2022-12-10T10:04:35;-0.70;99.90
19906;DHT22;10115;50.906;4.438;2022-12-10T10:07:01;-0.60;99.90
19906;DHT22;10115;50.906;4.438;2022-12-10T10:09:27;-0.50;99.90
19906;DHT22;10115;50.906;4.438;2022-12-10T10:11:53;-0.30;99.90
19906;DHT22;10115;50.906;4.438;2022-12-10T10:14:28;-0.50;99.90
19906;DHT22;10115;50.906;4.438;2022-12-10T10:16:56;-0.40;99.90
19906;DHT22;10115;50.906;4.438;2022-12-10T10:19:30;-0.50;99.90
19906;DHT22;10115;50.906;4.438;2022-12-10T10:21:58;-0.50;99.90
19906;DHT22;10115;50.906;4.438;2022-12-10T10:24:34;-0.50;99.90
19906;DHT22;10115;50.906;4.438;2022-12-10T10:27:27;-0.30;99.90
19906;DHT22;10115;50.906;4.438;2022-12-10T10:29:56;-0.30;99.90
19906;DHT22;10115;50.906;4.438;2022-12-10T10:32:25;-0.40;99.90
19906;DHT22;10115;50.906;4.438;2022-12-10T10:34:57;-0.40;99.90
19906;DHT22;10115;50.906;4.438;2022-12-10T10:37:25;-0.40;99.90
19906;DHT22;10115;50.906;4.438;2022-12-10T10:39:52;-0.40;99.90
19906;DHT22;10115;50.906;4.438;2022-12-10T10:44:51;-0.30;99.90
19906;DHT22;10115;50.906;4.438;2022-12-10T10:47:31;-0.30;99.90
19906;DHT22;10115;50.906;4.438;2022-12-10T10:49:57;-0.20;99.90
19906;DHT22;10115;50.906;4.438;2022-12-10T10:52:38;0.00;99.90
19906;DHT22;10115;50.906;4.438;2022-12-10T10:55:04;0.00;99.90
19906;DHT22;10115;50.906;4.438;2022-12-10T10:57:35;-0.10;99.90
19906;DHT22;10115;50.906;4.438;2022-12-10T11:00:19;0.10;99.90
19906;DHT22;10115;50.906;4.438;2022-12-10T11:02:46;0.10;99.90
19906;DHT22;10115;50.906;4.438;2022-12-10T11:05:26;0.10;99.90
19906;DHT22;10115;50.906;4.438;2022-12-10T11:08:02;0.20;99.90
19906;DHT22;10115;50.906;4.438;2022-12-10T11:10:29;0.20;99.90
19906;DHT22;10115;50.906;4.438;2022-12-10T11:15:31;0.10;99.90
19906;DHT22;10115;50.906;4.438;2022-12-10T11:17:57;0.20;99.90
19906;DHT22;10115;50.906;4.438;2022-12-10T11:20:27;0.10;99.90
19906;DHT22;10115;50.906;4.438;2022-12-10T11:23:02;0.10;99.90
19906;DHT22;10115;50.906;4.438;2022-12-10T11:31:13;0.30;99.90
19906;DHT22;10115;50.906;4.438;2022-12-10T11:36:35;0.50;99.90
19906;DHT22;10115;50.906;4.438;2022-12-10T11:39:23;0.50;99.90
19906;DHT22;10115;50.906;4.438;2022-12-10T11:42:00;0.40;99.90
19906;DHT22;10115;50.906;4.438;2022-12-10T11:50:44;0.40;99.90
19906;DHT22;10115;50.906;4.438;2022-12-10T11:54:09;0.20;99.90
19906;DHT22;10115;50.906;4.438;2022-12-10T11:59:17;0.40;99.90
19906;DHT22;10115;50.906;4.438;2022-12-10T12:02:41;0.50;99.90
19906;DHT22;10115;50.906;4.438;2022-12-10T12:05:27;0.40;99.90
19906;DHT22;10115;50.906;4.438;2022-12-10T12:07:51;0.40;99.90
19906;DHT22;10115;50.906;4.438;2022-12-10T12:13:30;0.40;99.90
19906;DHT22;10115;50.906;4.438;2022-12-10T12:15:39;0.50;99.90
19906;DHT22;10115;50.906;4.438;2022-12-10T12:20:58;0.30;99.90
19906;DHT22;10115;50.906;4.438;2022-12-10T12:25:59;0.20;99.90
19906;DHT22;10115;50.906;4.438;2022-12-10T12:28:37;0.30;99.90
19906;DHT22;10115;50.906;4.438;2022-12-10T12:31:14;0.20;99.90
19906;DHT22;10115;50.906;4.438;2022-12-10T12:36:19;0.30;99.90
19906;DHT22;10115;50.906;4.438;2022-12-10T12:41:43;0.10;99.90
19906;DHT22;10115;50.906;4.438;2022-12-10T12:49:55;0.30;99.90
19906;DHT22;10115;50.906;4.438;2022-12-10T12:52:48;0.40;99.90
19906;DHT22;10115;50.906;4.438;2022-12-10T12:55:19;0.50;99.90
19906;DHT22;10115;50.906;4.438;2022-12-10T12:57:58;0.50;99.90
19906;DHT22;10115;50.906;4.438;2022-12-10T13:00:30;0.70;99.90
19906;DHT22;10115;50.906;4.438;2022-12-10T13:05:48;0.80;99.90
19906;DHT22;10115;50.906;4.438;2022-12-10T13:08:24;0.80;99.90
19906;DHT22;10115;50.906;4.438;2022-12-10T13:13:39;0.70;99.90
19906;DHT22;10115;50.906;4.438;2022-12-10T13:25:03;1.20;99.90
19906;DHT22;10115;50.906;4.438;2022-12-10T13:27:33;1.30;99.90
19906;DHT22;10115;50.906;4.438;2022-12-10T13:37:34;1.20;99.90
19906;DHT22;10115;50.906;4.438;2022-12-10T13:42:36;1.20;99.90
19906;DHT22;10115;50.906;4.438;2022-12-10T13:50:48;1.30;99.90
19906;DHT22;10115;50.906;4.438;2022-12-10T13:53:20;1.30;99.90
19906;DHT22;10115;50.906;4.438;2022-12-10T14:04:05;1.30;99.90
19906;DHT22;10115;50.906;4.438;2022-12-10T14:06:39;1.30;99.90
19906;DHT22;10115;50.906;4.438;2022-12-10T14:09:28;1.50;99.90
19906;DHT22;10115;50.906;4.438;2022-12-10T14:11:59;1.40;99.90
19906;DHT22;10115;50.906;4.438;2022-12-10T14:14:33;1.50;99.90
19906;DHT22;10115;50.906;4.438;2022-12-10T14:17:20;1.60;99.90
19906;DHT22;10115;50.906;4.438;2022-12-10T14:19:49;1.50;99.90
19906;DHT22;10115;50.906;4.438;2022-12-10T14:22:28;1.50;99.90
19906;DHT22;10115;50.906;4.438;2022-12-10T14:24:59;1.40;99.90
19906;DHT22;10115;50.906;4.438;2022-12-10T14:27:27;1.50;99.90
19906;DHT22;10115;50.906;4.438;2022-12-10T14:29:59;1.70;99.90
19906;DHT22;10115;50.906;4.438;2022-12-10T14:32:36;1.70;99.90
19906;DHT22;10115;50.906;4.438;2022-12-10T14:35:11;1.60;99.90
19906;DHT22;10115;50.906;4.438;2022-12-10T14:37:41;1.50;99.90
19906;DHT22;10115;50.906;4.438;2022-12-10T14:40:08;1.30;99.90
19906;DHT22;10115;50.906;4.438;2022-12-10T14:42:38;1.30;99.90
19906;DHT22;10115;50.906;4.438;2022-12-10T14:45:05;1.30;99.90
19906;DHT22;10115;50.906;4.438;2022-12-10T14:47:36;1.30;99.90
19906;DHT22;10115;50.906;4.438;2022-12-10T14:50:06;1.30;99.90
19906;DHT22;10115;50.906;4.438;2022-12-10T14:52:41;1.20;99.90
19906;DHT22;10115;50.906;4.438;2022-12-10T14:55:16;1.30;99.90
19906;DHT22;10115;50.906;4.438;2022-12-10T14:58:00;1.20;99.90
19906;DHT22;10115;50.906;4.438;2022-12-10T15:00:27;1.20;99.90
19906;DHT22;10115;50.906;4.438;2022-12-10T15:03:07;1.20;99.90
19906;DHT22;10115;50.906;4.438;2022-12-10T15:05:34;1.20;99.90
19906;DHT22;10115;50.906;4.438;2022-12-10T15:08:05;1.30;99.90
19906;DHT22;10115;50.906;4.438;2022-12-10T15:10:54;1.20;99.90
19906;DHT22;10115;50.906;4.438;2022-12-10T15:13:38;1.20;99.90
19906;DHT22;10115;50.906;4.438;2022-12-10T15:16:05;1.30;99.90
19906;DHT22;10115;50.906;4.438;2022-12-10T15:18:36;1.30;99.90
19906;DHT22;10115;50.906;4.438;2022-12-10T15:21:20;1.30;99.90
19906;DHT22;10115;50.906;4.438;2022-12-10T15:23:47;1.30;99.90
19906;DHT22;10115;50.906;4.438;2022-12-10T15:26:22;1.30;99.90
19906;DHT22;10115;50.906;4.438;2022-12-10T15:28:51;1.20;99.90
19906;DHT22;10115;50.906;4.438;2022-12-10T15:34:01;1.30;99.90
19906;DHT22;10115;50.906;4.438;2022-12-10T15:41:50;1.50;99.90
19906;DHT22;10115;50.906;4.438;2022-12-10T15:49:28;1.40;99.90
19906;DHT22;10115;50.906;4.438;2022-12-10T15:51:54;1.60;99.90
19906;DHT22;10115;50.906;4.438;2022-12-10T15:54:37;1.70;99.90
19906;DHT22;10115;50.906;4.438;2022-12-10T15:59:41;1.50;99.90
19906;DHT22;10115;50.906;4.438;2022-12-10T16:05:28;1.40;99.90
19906;DHT22;10115;50.906;4.438;2022-12-10T16:07:56;1.30;99.90
19906;DHT22;10115;50.906;4.438;2022-12-10T16:10:24;1.50;99.90
19906;DHT22;10115;50.906;4.438;2022-12-10T16:15:24;1.50;99.90
19906;DHT22;10115;50.906;4.438;2022-12-10T16:17:51;1.60;99.90
19906;DHT22;10115;50.906;4.438;2022-12-10T16:20:28;1.40;99.90
19906;DHT22;10115;50.906;4.438;2022-12-10T16:22:55;1.30;99.90
19906;DHT22;10115;50.906;4.438;2022-12-10T16:25:23;1.30;99.90
19906;DHT22;10115;50.906;4.438;2022-12-10T16:27:49;1.30;99.90
19906;DHT22;10115;50.906;4.438;2022-12-10T16:30:19;1.40;99.90
19906;DHT22;10115;50.906;4.438;2022-12-10T16:32:46;1.50;99.90
19906;DHT22;10115;50.906;4.438;2022-12-10T16:35:12;1.50;99.90
19906;DHT22;10115;50.906;4.438;2022-12-10T16:37:44;1.60;99.90
19906;DHT22;10115;50.906;4.438;2022-12-10T16:40:14;1.50;99.90
19906;DHT22;10115;50.906;4.438;2022-12-10T16:42:41;1.40;99.90
19906;DHT22;10115;50.906;4.438;2022-12-10T16:45:19;1.40;99.90
19906;DHT22;10115;50.906;4.438;2022-12-10T16:47:46;1.30;99.90
19906;DHT22;10115;50.906;4.438;2022-12-10T16:50:13;1.30;99.90
19906;DHT22;10115;50.906;4.438;2022-12-10T16:52:40;1.20;99.90
19906;DHT22;10115;50.906;4.438;2022-12-10T16:55:09;1.30;99.90
19906;DHT22;10115;50.906;4.438;2022-12-10T16:57:36;1.30;99.90
19906;DHT22;10115;50.906;4.438;2022-12-10T17:00:03;1.40;99.90
19906;DHT22;10115;50.906;4.438;2022-12-10T17:02:28;1.30;99.90
19906;DHT22;10115;50.906;4.438;2022-12-10T17:04:54;1.20;99.90
19906;DHT22;10115;50.906;4.438;2022-12-10T17:07:20;1.20;99.90
19906;DHT22;10115;50.906;4.438;2022-12-10T17:09:45;1.30;99.90
19906;DHT22;10115;50.906;4.438;2022-12-10T17:12:11;1.40;99.90
19906;DHT22;10115;50.906;4.438;2022-12-10T17:14:39;1.40;99.90
19906;DHT22;10115;50.906;4.438;2022-12-10T17:17:06;1.60;99.90
19906;DHT22;10115;50.906;4.438;2022-12-10T17:19:34;1.60;99.90
19906;DHT22;10115;50.906;4.438;2022-12-10T17:22:01;1.70;99.90
19906;DHT22;10115;50.906;4.438;2022-12-10T17:24:27;1.50;99.90
19906;DHT22;10115;50.906;4.438;2022-12-10T17:26:53;1.50;99.90
19906;DHT22;10115;50.906;4.438;2022-12-10T17:29:33;1.60;99.90
19906;DHT22;10115;50.906;4.438;2022-12-10T17:32:01;1.50;99.90
19906;DHT22;10115;50.906;4.438;2022-12-10T17:34:27;1.60;99.90
19906;DHT22;10115;50.906;4.438;2022-12-10T17:36:53;1.60;99.90
19906;DHT22;10115;50.906;4.438;2022-12-10T17:39:21;1.60;99.90
19906;DHT22;10115;50.906;4.438;2022-12-10T17:41:47;1.50;99.90
19906;DHT22;10115;50.906;4.438;2022-12-10T17:44:13;1.60;99.90
19906;DHT22;10115;50.906;4.438;2022-12-10T17:46:39;1.60;99.90
19906;DHT22;10115;50.906;4.438;2022-12-10T17:49:04;1.40;99.90
19906;DHT22;10115;50.906;4.438;2022-12-10T17:51:30;1.50;99.90
19906;DHT22;10115;50.906;4.438;2022-12-10T17:53:57;1.50;99.90
19906;DHT22;10115;50.906;4.438;2022-12-10T17:56:25;1.50;99.90
19906;DHT22;10115;50.906;4.438;2022-12-10T17:58:54;1.50;99.90
19906;DHT22;10115;50.906;4.438;2022-12-10T18:01:20;1.50;99.90
19906;DHT22;10115;50.906;4.438;2022-12-10T18:03:46;1.60;99.90
19906;DHT22;10115;50.906;4.438;2022-12-10T18:06:24;1.50;99.90
19906;DHT22;10115;50.906;4.438;2022-12-10T18:08:56;1.50;99.90
19906;DHT22;10115;50.906;4.438;2022-12-10T18:11:31;1.60;99.90
19906;DHT22;10115;50.906;4.438;2022-12-10T18:13:58;1.60;99.90